sensor_id;sensor_type;location;lat;lon;timestamp;P1;durP1;ratioP1;P2;durP2;ratioP2
13335;SDS011;6737;51.480;11.962;2022-10-30T00:00:33;11.30;;;6.47;;
13335;SDS011;6737;51.480;11.962;2022-10-30T00:02:59;13.50;;;6.75;;
13335;SDS011;6737;51.480;11.962;2022-10-30T00:05:25;10.53;;;5.90;;
13335;SDS011;6737;51.480;11.962;2022-10-30T00:07:51;10.90;;;6.70;;
13335;SDS011;6737;51.480;11.962;2022-10-30T00:10:20;8.27;;;5.90;;
13335;SDS011;6737;51.480;11.962;2022-10-30T00:12:46;8.83;;;5.70;;
13335;SDS011;6737;51.480;11.962;2022-10-30T00:15:12;11.97;;;6.17;;
13335;SDS011;6737;51.480;11.962;2022-10-30T00:17:38;11.03;;;6.23;;
13335;SDS011;6737;51.480;11.962;2022-10-30T00:20:04;12.93;;;6.83;;
13335;SDS011;6737;51.480;11.962;2022-10-30T00:22:31;11.30;;;6.77;;
13335;SDS011;6737;51.480;11.962;2022-10-30T00:24:57;9.70;;;5.60;;
13335;SDS011;6737;51.480;11.962;2022-10-30T00:27:22;12.53;;;6.77;;
13335;SDS011;6737;51.480;11.962;2022-10-30T00:29:48;11.03;;;7.27;;
13335;SDS011;6737;51.480;11.962;2022-10-30T00:32:14;14.23;;;7.37;;
13335;SDS011;6737;51.480;11.962;2022-10-30T00:34:39;10.80;;;6.37;;
13335;SDS011;6737;51.480;11.962;2022-10-30T00:37:05;13.53;;;6.47;;
13335;SDS011;6737;51.480;11.962;2022-10-30T00:39:31;10.80;;;6.23;;
13335;SDS011;6737;51.480;11.962;2022-10-30T00:41:56;10.30;;;6.20;;
13335;SDS011;6737;51.480;11.962;2022-10-30T00:49:49;9.33;;;6.73;;
13335;SDS011;6737;51.480;11.962;2022-10-30T00:52:30;11.63;;;6.50;;
13335;SDS011;6737;51.480;11.962;2022-10-30T00:55:07;10.87;;;7.23;;
13335;SDS011;6737;51.480;11.962;2022-10-30T00:57:37;9.53;;;6.57;;
13335;SDS011;6737;51.480;11.962;2022-10-30T01:00:05;10.87;;;7.10;;
13335;SDS011;6737;51.480;11.962;2022-10-30T01:02:33;12.50;;;6.83;;
13335;SDS011;6737;51.480;11.962;2022-10-30T01:04:59;14.07;;;7.60;;
13335;SDS011;6737;51.480;11.962;2022-10-30T01:07:26;11.93;;;6.73;;
13335;SDS011;6737;51.480;11.962;2022-10-30T01:09:52;11.03;;;6.27;;
13335;SDS011;6737;51.480;11.962;2022-10-30T01:12:18;10.73;;;7.10;;
13335;SDS011;6737;51.480;11.962;2022-10-30T01:14:48;12.23;;;7.57;;
13335;SDS011;6737;51.480;11.962;2022-10-30T01:20:26;11.50;;;7.33;;
13335;SDS011;6737;51.480;11.962;2022-10-30T01:25:50;13.33;;;7.70;;
13335;SDS011;6737;51.480;11.962;2022-10-30T01:35:09;10.70;;;7.20;;
13335;SDS011;6737;51.480;11.962;2022-10-30T01:40:28;11.07;;;7.67;;
13335;SDS011;6737;51.480;11.962;2022-10-30T01:42:54;13.70;;;8.50;;
13335;SDS011;6737;51.480;11.962;2022-10-30T01:48:19;10.83;;;7.90;;
13335;SDS011;6737;51.480;11.962;2022-10-30T01:51:14;16.10;;;7.50;;
13335;SDS011;6737;51.480;11.962;2022-10-30T01:53:47;13.90;;;7.80;;
13335;SDS011;6737;51.480;11.962;2022-10-30T01:56:36;11.13;;;7.53;;
13335;SDS011;6737;51.480;11.962;2022-10-30T01:59:19;13.37;;;7.80;;
13335;SDS011;6737;51.480;11.962;2022-10-30T02:01:53;13.70;;;7.77;;
13335;SDS011;6737;51.480;11.962;2022-10-30T02:04:19;15.67;;;7.80;;
13335;SDS011;6737;51.480;11.962;2022-10-30T02:06:45;14.50;;;8.07;;
13335;SDS011;6737;51.480;11.962;2022-10-30T02:09:11;16.13;;;7.67;;
13335;SDS011;6737;51.480;11.962;2022-10-30T02:11:40;13.17;;;7.67;;
13335;SDS011;6737;51.480;11.962;2022-10-30T02:14:06;18.52;;;7.55;;
13335;SDS011;6737;51.480;11.962;2022-10-30T02:16:34;11.93;;;7.17;;
13335;SDS011;6737;51.480;11.962;2022-10-30T02:19:04;14.30;;;7.80;;
13335;SDS011;6737;51.480;11.962;2022-10-30T02:21:31;14.17;;;8.10;;
13335;SDS011;6737;51.480;11.962;2022-10-30T02:23:57;14.67;;;8.00;;
13335;SDS011;6737;51.480;11.962;2022-10-30T02:26:23;12.33;;;7.50;;
13335;SDS011;6737;51.480;11.962;2022-10-30T02:28:48;13.77;;;7.87;;
13335;SDS011;6737;51.480;11.962;2022-10-30T02:31:14;14.33;;;7.57;;
13335;SDS011;6737;51.480;11.962;2022-10-30T02:33:44;14.53;;;8.10;;
13335;SDS011;6737;51.480;11.962;2022-10-30T02:36:10;11.63;;;7.67;;
13335;SDS011;6737;51.480;11.962;2022-10-30T02:38:39;13.63;;;7.33;;
13335;SDS011;6737;51.480;11.962;2022-10-30T02:41:06;11.53;;;6.93;;
13335;SDS011;6737;51.480;11.962;2022-10-30T02:43:31;11.00;;;7.40;;
13335;SDS011;6737;51.480;11.962;2022-10-30T02:45:57;11.00;;;7.13;;
13335;SDS011;6737;51.480;11.962;2022-10-30T02:48:23;12.30;;;7.47;;
13335;SDS011;6737;51.480;11.962;2022-10-30T02:50:49;11.53;;;7.80;;
13335;SDS011;6737;51.480;11.962;2022-10-30T02:53:15;15.77;;;7.60;;
13335;SDS011;6737;51.480;11.962;2022-10-30T02:55:40;12.10;;;8.17;;
13335;SDS011;6737;51.480;11.962;2022-10-30T02:58:06;13.30;;;7.47;;
13335;SDS011;6737;51.480;11.962;2022-10-30T03:00:32;12.83;;;7.60;;
13335;SDS011;6737;51.480;11.962;2022-10-30T03:02:58;10.43;;;7.10;;
13335;SDS011;6737;51.480;11.962;2022-10-30T03:05:24;12.67;;;6.97;;
13335;SDS011;6737;51.480;11.962;2022-10-30T03:07:50;10.37;;;7.03;;
13335;SDS011;6737;51.480;11.962;2022-10-30T03:10:16;11.43;;;6.90;;
13335;SDS011;6737;51.480;11.962;2022-10-30T03:12:42;12.67;;;7.00;;
13335;SDS011;6737;51.480;11.962;2022-10-30T03:15:08;11.67;;;6.70;;
13335;SDS011;6737;51.480;11.962;2022-10-30T03:17:35;10.67;;;6.90;;
13335;SDS011;6737;51.480;11.962;2022-10-30T03:20:00;8.73;;;6.30;;
13335;SDS011;6737;51.480;11.962;2022-10-30T03:22:26;11.70;;;6.97;;
13335;SDS011;6737;51.480;11.962;2022-10-30T03:24:52;11.37;;;6.97;;
13335;SDS011;6737;51.480;11.962;2022-10-30T03:27:18;10.80;;;7.17;;
13335;SDS011;6737;51.480;11.962;2022-10-30T03:29:43;12.63;;;6.97;;
13335;SDS011;6737;51.480;11.962;2022-10-30T03:32:10;13.17;;;7.37;;
13335;SDS011;6737;51.480;11.962;2022-10-30T03:34:36;10.37;;;6.80;;
13335;SDS011;6737;51.480;11.962;2022-10-30T03:37:02;11.17;;;6.73;;
13335;SDS011;6737;51.480;11.962;2022-10-30T03:39:29;9.50;;;6.90;;
13335;SDS011;6737;51.480;11.962;2022-10-30T03:41:55;11.47;;;7.17;;
13335;SDS011;6737;51.480;11.962;2022-10-30T03:44:20;12.03;;;6.50;;
13335;SDS011;6737;51.480;11.962;2022-10-30T03:46:46;10.80;;;6.50;;
13335;SDS011;6737;51.480;11.962;2022-10-30T03:49:12;10.30;;;6.63;;
13335;SDS011;6737;51.480;11.962;2022-10-30T03:51:38;13.97;;;6.70;;
13335;SDS011;6737;51.480;11.962;2022-10-30T03:54:03;12.70;;;6.50;;
13335;SDS011;6737;51.480;11.962;2022-10-30T03:56:29;10.97;;;6.50;;
13335;SDS011;6737;51.480;11.962;2022-10-30T03:58:55;13.00;;;6.97;;
13335;SDS011;6737;51.480;11.962;2022-10-30T04:01:21;9.97;;;6.67;;
13335;SDS011;6737;51.480;11.962;2022-10-30T04:03:47;9.97;;;6.63;;
13335;SDS011;6737;51.480;11.962;2022-10-30T04:06:12;10.33;;;6.77;;
13335;SDS011;6737;51.480;11.962;2022-10-30T04:08:38;13.63;;;6.70;;
13335;SDS011;6737;51.480;11.962;2022-10-30T04:11:04;11.77;;;6.63;;
13335;SDS011;6737;51.480;11.962;2022-10-30T04:13:30;9.60;;;6.33;;
13335;SDS011;6737;51.480;11.962;2022-10-30T04:15:55;12.47;;;6.83;;
13335;SDS011;6737;51.480;11.962;2022-10-30T04:18:21;9.63;;;6.90;;
13335;SDS011;6737;51.480;11.962;2022-10-30T04:20:47;14.23;;;6.70;;
13335;SDS011;6737;51.480;11.962;2022-10-30T04:23:14;10.17;;;6.50;;
13335;SDS011;6737;51.480;11.962;2022-10-30T04:25:41;10.97;;;6.30;;
13335;SDS011;6737;51.480;11.962;2022-10-30T04:28:08;13.10;;;6.87;;
13335;SDS011;6737;51.480;11.962;2022-10-30T04:30:34;10.00;;;6.50;;
13335;SDS011;6737;51.480;11.962;2022-10-30T04:33:04;9.90;;;6.83;;
13335;SDS011;6737;51.480;11.962;2022-10-30T04:35:32;12.73;;;7.37;;
13335;SDS011;6737;51.480;11.962;2022-10-30T04:38:02;11.17;;;7.50;;
13335;SDS011;6737;51.480;11.962;2022-10-30T04:40:32;14.40;;;6.77;;
13335;SDS011;6737;51.480;11.962;2022-10-30T04:42:59;10.73;;;6.80;;
13335;SDS011;6737;51.480;11.962;2022-10-30T04:45:27;14.73;;;7.70;;
13335;SDS011;6737;51.480;11.962;2022-10-30T04:47:59;10.67;;;6.97;;
13335;SDS011;6737;51.480;11.962;2022-10-30T04:50:36;9.80;;;6.90;;
13335;SDS011;6737;51.480;11.962;2022-10-30T04:53:04;10.90;;;6.27;;
13335;SDS011;6737;51.480;11.962;2022-10-30T04:55:32;9.23;;;6.37;;
13335;SDS011;6737;51.480;11.962;2022-10-30T04:57:58;13.83;;;6.97;;
13335;SDS011;6737;51.480;11.962;2022-10-30T05:00:27;9.93;;;6.60;;
13335;SDS011;6737;51.480;11.962;2022-10-30T05:02:53;11.30;;;6.60;;
13335;SDS011;6737;51.480;11.962;2022-10-30T05:05:19;10.10;;;6.53;;
13335;SDS011;6737;51.480;11.962;2022-10-30T05:07:45;11.77;;;6.73;;
13335;SDS011;6737;51.480;11.962;2022-10-30T05:10:11;11.53;;;6.57;;
13335;SDS011;6737;51.480;11.962;2022-10-30T05:12:40;12.57;;;7.37;;
13335;SDS011;6737;51.480;11.962;2022-10-30T05:15:07;11.50;;;6.67;;
13335;SDS011;6737;51.480;11.962;2022-10-30T05:17:34;14.07;;;7.10;;
13335;SDS011;6737;51.480;11.962;2022-10-30T05:19:59;14.47;;;7.53;;
13335;SDS011;6737;51.480;11.962;2022-10-30T05:22:25;11.13;;;6.53;;
13335;SDS011;6737;51.480;11.962;2022-10-30T05:24:51;8.80;;;6.40;;
13335;SDS011;6737;51.480;11.962;2022-10-30T05:27:16;10.93;;;6.20;;
13335;SDS011;6737;51.480;11.962;2022-10-30T05:29:42;10.70;;;6.37;;
13335;SDS011;6737;51.480;11.962;2022-10-30T05:32:08;8.40;;;6.53;;
13335;SDS011;6737;51.480;11.962;2022-10-30T05:34:33;9.97;;;6.63;;
13335;SDS011;6737;51.480;11.962;2022-10-30T05:36:59;9.87;;;6.40;;
13335;SDS011;6737;51.480;11.962;2022-10-30T05:39:25;11.80;;;6.40;;
13335;SDS011;6737;51.480;11.962;2022-10-30T05:41:52;10.87;;;6.57;;
13335;SDS011;6737;51.480;11.962;2022-10-30T05:44:17;9.30;;;6.17;;
13335;SDS011;6737;51.480;11.962;2022-10-30T05:46:43;13.87;;;6.40;;
13335;SDS011;6737;51.480;11.962;2022-10-30T05:49:09;10.23;;;7.17;;
13335;SDS011;6737;51.480;11.962;2022-10-30T05:51:35;12.17;;;6.97;;
13335;SDS011;6737;51.480;11.962;2022-10-30T05:54:00;10.53;;;6.73;;
13335;SDS011;6737;51.480;11.962;2022-10-30T05:56:26;12.53;;;6.53;;
13335;SDS011;6737;51.480;11.962;2022-10-30T05:58:52;10.03;;;6.63;;
13335;SDS011;6737;51.480;11.962;2022-10-30T06:01:18;12.23;;;6.67;;
13335;SDS011;6737;51.480;11.962;2022-10-30T06:03:43;13.97;;;6.63;;
13335;SDS011;6737;51.480;11.962;2022-10-30T06:06:09;9.73;;;6.70;;
13335;SDS011;6737;51.480;11.962;2022-10-30T06:08:35;10.93;;;6.63;;
13335;SDS011;6737;51.480;11.962;2022-10-30T06:11:01;9.43;;;6.17;;
13335;SDS011;6737;51.480;11.962;2022-10-30T06:13:26;11.47;;;6.37;;
13335;SDS011;6737;51.480;11.962;2022-10-30T06:15:55;9.23;;;6.43;;
13335;SDS011;6737;51.480;11.962;2022-10-30T06:18:21;9.63;;;6.43;;
13335;SDS011;6737;51.480;11.962;2022-10-30T06:20:47;9.70;;;6.60;;
13335;SDS011;6737;51.480;11.962;2022-10-30T06:23:13;10.40;;;6.17;;
13335;SDS011;6737;51.480;11.962;2022-10-30T06:25:39;10.20;;;6.47;;
13335;SDS011;6737;51.480;11.962;2022-10-30T06:28:05;9.87;;;5.80;;
13335;SDS011;6737;51.480;11.962;2022-10-30T06:30:31;10.17;;;5.93;;
13335;SDS011;6737;51.480;11.962;2022-10-30T06:32:58;8.73;;;5.97;;
13335;SDS011;6737;51.480;11.962;2022-10-30T06:35:25;10.27;;;6.00;;
13335;SDS011;6737;51.480;11.962;2022-10-30T06:37:52;8.07;;;5.40;;
13335;SDS011;6737;51.480;11.962;2022-10-30T06:40:19;10.53;;;6.00;;
13335;SDS011;6737;51.480;11.962;2022-10-30T06:42:46;9.10;;;6.30;;
13335;SDS011;6737;51.480;11.962;2022-10-30T06:45:15;9.93;;;6.00;;
13335;SDS011;6737;51.480;11.962;2022-10-30T06:47:43;11.07;;;6.13;;
13335;SDS011;6737;51.480;11.962;2022-10-30T06:50:12;10.17;;;6.20;;
13335;SDS011;6737;51.480;11.962;2022-10-30T06:52:41;9.80;;;5.93;;
13335;SDS011;6737;51.480;11.962;2022-10-30T06:55:07;9.57;;;5.77;;
13335;SDS011;6737;51.480;11.962;2022-10-30T06:57:34;8.30;;;5.57;;
13335;SDS011;6737;51.480;11.962;2022-10-30T06:59:59;11.40;;;6.03;;
13335;SDS011;6737;51.480;11.962;2022-10-30T07:02:26;11.03;;;6.20;;
13335;SDS011;6737;51.480;11.962;2022-10-30T07:04:52;8.07;;;5.73;;
13335;SDS011;6737;51.480;11.962;2022-10-30T07:07:17;10.73;;;6.00;;
13335;SDS011;6737;51.480;11.962;2022-10-30T07:09:43;9.00;;;5.87;;
13335;SDS011;6737;51.480;11.962;2022-10-30T07:12:10;9.33;;;5.20;;
13335;SDS011;6737;51.480;11.962;2022-10-30T07:14:37;9.37;;;5.53;;
13335;SDS011;6737;51.480;11.962;2022-10-30T07:17:03;13.10;;;5.77;;
13335;SDS011;6737;51.480;11.962;2022-10-30T07:19:29;10.83;;;5.87;;
13335;SDS011;6737;51.480;11.962;2022-10-30T07:21:54;9.63;;;5.63;;
13335;SDS011;6737;51.480;11.962;2022-10-30T07:24:20;10.37;;;6.27;;
13335;SDS011;6737;51.480;11.962;2022-10-30T07:26:46;9.83;;;5.87;;
13335;SDS011;6737;51.480;11.962;2022-10-30T07:29:12;10.87;;;5.80;;
13335;SDS011;6737;51.480;11.962;2022-10-30T07:31:37;8.33;;;5.33;;
13335;SDS011;6737;51.480;11.962;2022-10-30T07:34:03;9.93;;;5.40;;
13335;SDS011;6737;51.480;11.962;2022-10-30T07:36:29;8.83;;;5.47;;
13335;SDS011;6737;51.480;11.962;2022-10-30T07:38:55;8.77;;;5.37;;
13335;SDS011;6737;51.480;11.962;2022-10-30T07:41:21;8.73;;;5.40;;
13335;SDS011;6737;51.480;11.962;2022-10-30T07:43:47;8.50;;;5.00;;
13335;SDS011;6737;51.480;11.962;2022-10-30T07:46:13;10.03;;;5.53;;
13335;SDS011;6737;51.480;11.962;2022-10-30T07:48:39;8.57;;;5.60;;
13335;SDS011;6737;51.480;11.962;2022-10-30T07:51:05;9.27;;;5.07;;
13335;SDS011;6737;51.480;11.962;2022-10-30T07:53:31;8.33;;;4.87;;
13335;SDS011;6737;51.480;11.962;2022-10-30T07:55:57;9.13;;;5.13;;
13335;SDS011;6737;51.480;11.962;2022-10-30T07:58:23;9.00;;;5.33;;
13335;SDS011;6737;51.480;11.962;2022-10-30T08:00:49;10.20;;;5.60;;
13335;SDS011;6737;51.480;11.962;2022-10-30T08:03:14;8.13;;;5.13;;
13335;SDS011;6737;51.480;11.962;2022-10-30T08:05:40;8.70;;;5.13;;
13335;SDS011;6737;51.480;11.962;2022-10-30T08:08:06;8.17;;;5.17;;
13335;SDS011;6737;51.480;11.962;2022-10-30T08:10:33;8.93;;;5.50;;
13335;SDS011;6737;51.480;11.962;2022-10-30T08:13:00;8.23;;;5.57;;
13335;SDS011;6737;51.480;11.962;2022-10-30T08:15:26;10.17;;;5.33;;
13335;SDS011;6737;51.480;11.962;2022-10-30T08:17:52;8.87;;;5.30;;
13335;SDS011;6737;51.480;11.962;2022-10-30T08:20:19;11.40;;;5.53;;
13335;SDS011;6737;51.480;11.962;2022-10-30T08:25:17;9.83;;;6.23;;
13335;SDS011;6737;51.480;11.962;2022-10-30T08:27:48;9.27;;;5.33;;
13335;SDS011;6737;51.480;11.962;2022-10-30T08:30:16;8.20;;;5.23;;
13335;SDS011;6737;51.480;11.962;2022-10-30T08:32:42;9.87;;;5.33;;
13335;SDS011;6737;51.480;11.962;2022-10-30T08:35:08;12.77;;;5.17;;
13335;SDS011;6737;51.480;11.962;2022-10-30T08:37:34;11.03;;;5.90;;
13335;SDS011;6737;51.480;11.962;2022-10-30T08:40:00;9.13;;;5.00;;
13335;SDS011;6737;51.480;11.962;2022-10-30T08:42:25;8.27;;;5.13;;
13335;SDS011;6737;51.480;11.962;2022-10-30T08:44:51;8.10;;;4.70;;
13335;SDS011;6737;51.480;11.962;2022-10-30T08:47:17;8.70;;;4.97;;
13335;SDS011;6737;51.480;11.962;2022-10-30T08:49:43;7.03;;;4.63;;
13335;SDS011;6737;51.480;11.962;2022-10-30T08:52:09;10.27;;;5.00;;
13335;SDS011;6737;51.480;11.962;2022-10-30T08:54:35;8.68;;;5.30;;
13335;SDS011;6737;51.480;11.962;2022-10-30T08:57:01;6.72;;;4.57;;
13335;SDS011;6737;51.480;11.962;2022-10-30T08:59:27;8.45;;;4.72;;
13335;SDS011;6737;51.480;11.962;2022-10-30T09:01:52;7.65;;;4.85;;
13335;SDS011;6737;51.480;11.962;2022-10-30T09:04:18;9.27;;;4.60;;
13335;SDS011;6737;51.480;11.962;2022-10-30T09:06:44;7.35;;;4.60;;
13335;SDS011;6737;51.480;11.962;2022-10-30T09:09:10;9.75;;;5.13;;
13335;SDS011;6737;51.480;11.962;2022-10-30T09:11:36;8.60;;;4.60;;
13335;SDS011;6737;51.480;11.962;2022-10-30T09:14:02;6.50;;;4.50;;
13335;SDS011;6737;51.480;11.962;2022-10-30T09:16:28;8.55;;;4.30;;
13335;SDS011;6737;51.480;11.962;2022-10-30T09:18:53;7.53;;;4.35;;
13335;SDS011;6737;51.480;11.962;2022-10-30T09:21:19;9.40;;;5.13;;
13335;SDS011;6737;51.480;11.962;2022-10-30T09:23:45;8.10;;;4.43;;
13335;SDS011;6737;51.480;11.962;2022-10-30T09:26:11;7.10;;;4.30;;
13335;SDS011;6737;51.480;11.962;2022-10-30T09:28:36;8.85;;;4.28;;
13335;SDS011;6737;51.480;11.962;2022-10-30T09:31:02;5.95;;;4.15;;
13335;SDS011;6737;51.480;11.962;2022-10-30T09:33:28;7.63;;;4.13;;
13335;SDS011;6737;51.480;11.962;2022-10-30T09:35:54;7.65;;;4.18;;
13335;SDS011;6737;51.480;11.962;2022-10-30T09:38:20;8.43;;;4.00;;
13335;SDS011;6737;51.480;11.962;2022-10-30T09:43:54;9.38;;;4.35;;
13335;SDS011;6737;51.480;11.962;2022-10-30T10:01:27;5.93;;;3.80;;
13335;SDS011;6737;51.480;11.962;2022-10-30T10:04:23;7.60;;;3.90;;
13335;SDS011;6737;51.480;11.962;2022-10-30T10:06:56;9.45;;;3.92;;
13335;SDS011;6737;51.480;11.962;2022-10-30T10:09:27;9.77;;;3.78;;
13335;SDS011;6737;51.480;11.962;2022-10-30T10:12:01;6.50;;;3.95;;
13335;SDS011;6737;51.480;11.962;2022-10-30T10:14:37;5.78;;;3.83;;
13335;SDS011;6737;51.480;11.962;2022-10-30T10:17:11;5.75;;;3.10;;
13335;SDS011;6737;51.480;11.962;2022-10-30T10:19:51;7.00;;;3.53;;
13335;SDS011;6737;51.480;11.962;2022-10-30T10:25:01;5.75;;;3.25;;
13335;SDS011;6737;51.480;11.962;2022-10-30T10:38:14;7.15;;;3.88;;
13335;SDS011;6737;51.480;11.962;2022-10-30T10:43:40;7.45;;;3.83;;
13335;SDS011;6737;51.480;11.962;2022-10-30T10:46:14;8.20;;;3.50;;
13335;SDS011;6737;51.480;11.962;2022-10-30T10:52:20;6.60;;;2.85;;
13335;SDS011;6737;51.480;11.962;2022-10-30T10:55:21;8.88;;;3.08;;
13335;SDS011;6737;51.480;11.962;2022-10-30T10:57:52;5.50;;;2.85;;
13335;SDS011;6737;51.480;11.962;2022-10-30T11:00:29;7.38;;;3.40;;
13335;SDS011;6737;51.480;11.962;2022-10-30T11:03:14;5.45;;;2.53;;
13335;SDS011;6737;51.480;11.962;2022-10-30T11:05:47;6.65;;;2.95;;
13335;SDS011;6737;51.480;11.962;2022-10-30T11:08:22;6.32;;;3.20;;
13335;SDS011;6737;51.480;11.962;2022-10-30T11:11:01;5.70;;;2.83;;
13335;SDS011;6737;51.480;11.962;2022-10-30T11:13:30;11.10;;;4.43;;
13335;SDS011;6737;51.480;11.962;2022-10-30T11:18:27;11.63;;;6.20;;
13335;SDS011;6737;51.480;11.962;2022-10-30T11:21:00;10.88;;;6.50;;
13335;SDS011;6737;51.480;11.962;2022-10-30T11:23:48;6.72;;;4.05;;
13335;SDS011;6737;51.480;11.962;2022-10-30T11:31:26;4.07;;;2.90;;
13335;SDS011;6737;51.480;11.962;2022-10-30T11:34:41;6.13;;;2.80;;
13335;SDS011;6737;51.480;11.962;2022-10-30T11:36:54;5.38;;;2.58;;
13335;SDS011;6737;51.480;11.962;2022-10-30T11:39:28;9.00;;;2.90;;
13335;SDS011;6737;51.480;11.962;2022-10-30T11:42:05;5.93;;;2.83;;
13335;SDS011;6737;51.480;11.962;2022-10-30T11:44:45;6.53;;;2.35;;
13335;SDS011;6737;51.480;11.962;2022-10-30T11:47:14;5.32;;;2.60;;
13335;SDS011;6737;51.480;11.962;2022-10-30T11:52:22;5.80;;;2.55;;
13335;SDS011;6737;51.480;11.962;2022-10-30T11:55:36;4.57;;;2.40;;
13335;SDS011;6737;51.480;11.962;2022-10-30T11:57:46;7.45;;;2.92;;
13335;SDS011;6737;51.480;11.962;2022-10-30T12:02:45;5.95;;;2.85;;
13335;SDS011;6737;51.480;11.962;2022-10-30T12:07:50;8.82;;;2.90;;
13335;SDS011;6737;51.480;11.962;2022-10-30T12:10:23;5.30;;;2.67;;
13335;SDS011;6737;51.480;11.962;2022-10-30T12:12:54;6.60;;;2.63;;
13335;SDS011;6737;51.480;11.962;2022-10-30T12:15:20;7.47;;;2.78;;
13335;SDS011;6737;51.480;11.962;2022-10-30T12:20:17;4.13;;;2.25;;
13335;SDS011;6737;51.480;11.962;2022-10-30T12:22:43;4.82;;;2.92;;
13335;SDS011;6737;51.480;11.962;2022-10-30T12:25:14;6.95;;;2.78;;
13335;SDS011;6737;51.480;11.962;2022-10-30T12:27:49;5.18;;;2.70;;
13335;SDS011;6737;51.480;11.962;2022-10-30T12:30:22;7.78;;;2.70;;
13335;SDS011;6737;51.480;11.962;2022-10-30T12:38:04;6.78;;;2.88;;
13335;SDS011;6737;51.480;11.962;2022-10-30T12:40:36;6.07;;;2.85;;
13335;SDS011;6737;51.480;11.962;2022-10-30T12:45:47;7.28;;;2.72;;
13335;SDS011;6737;51.480;11.962;2022-10-30T12:48:17;6.07;;;3.13;;
13335;SDS011;6737;51.480;11.962;2022-10-30T12:51:04;7.88;;;2.85;;
13335;SDS011;6737;51.480;11.962;2022-10-30T12:54:04;4.97;;;2.95;;
13335;SDS011;6737;51.480;11.962;2022-10-30T12:56:46;8.45;;;3.00;;
13335;SDS011;6737;51.480;11.962;2022-10-30T12:59:42;8.88;;;3.42;;
13335;SDS011;6737;51.480;11.962;2022-10-30T13:02:28;4.93;;;2.75;;
13335;SDS011;6737;51.480;11.962;2022-10-30T13:05:04;5.65;;;3.47;;
13335;SDS011;6737;51.480;11.962;2022-10-30T13:13:53;7.40;;;3.72;;
13335;SDS011;6737;51.480;11.962;2022-10-30T13:16:26;9.50;;;4.00;;
13335;SDS011;6737;51.480;11.962;2022-10-30T13:18:58;7.32;;;3.15;;
13335;SDS011;6737;51.480;11.962;2022-10-30T13:29:41;5.20;;;3.45;;
13335;SDS011;6737;51.480;11.962;2022-10-30T13:32:18;8.20;;;3.05;;
13335;SDS011;6737;51.480;11.962;2022-10-30T13:38:14;5.60;;;4.00;;
13335;SDS011;6737;51.480;11.962;2022-10-30T13:40:47;6.68;;;3.55;;
13335;SDS011;6737;51.480;11.962;2022-10-30T13:56:35;7.93;;;3.90;;
13335;SDS011;6737;51.480;11.962;2022-10-30T13:59:06;5.63;;;3.30;;
13335;SDS011;6737;51.480;11.962;2022-10-30T14:07:52;5.13;;;2.97;;
13335;SDS011;6737;51.480;11.962;2022-10-30T14:13:21;6.25;;;3.00;;
13335;SDS011;6737;51.480;11.962;2022-10-30T14:15:52;5.60;;;3.40;;
13335;SDS011;6737;51.480;11.962;2022-10-30T14:18:22;9.63;;;3.38;;
13335;SDS011;6737;51.480;11.962;2022-10-30T14:20:51;6.65;;;4.32;;
13335;SDS011;6737;51.480;11.962;2022-10-30T14:28:28;12.20;;;5.03;;
13335;SDS011;6737;51.480;11.962;2022-10-30T14:36:26;7.85;;;3.35;;
13335;SDS011;6737;51.480;11.962;2022-10-30T14:44:45;6.22;;;3.30;;
13335;SDS011;6737;51.480;11.962;2022-10-30T14:55:30;6.45;;;2.92;;
13335;SDS011;6737;51.480;11.962;2022-10-30T15:05:49;7.68;;;3.58;;
13335;SDS011;6737;51.480;11.962;2022-10-30T15:13:44;10.40;;;4.85;;
13335;SDS011;6737;51.480;11.962;2022-10-30T15:16:14;8.55;;;5.20;;
13335;SDS011;6737;51.480;11.962;2022-10-30T15:18:45;11.00;;;5.78;;
13335;SDS011;6737;51.480;11.962;2022-10-30T15:21:17;10.70;;;5.25;;
13335;SDS011;6737;51.480;11.962;2022-10-30T15:23:49;9.85;;;4.57;;
13335;SDS011;6737;51.480;11.962;2022-10-30T15:26:22;10.48;;;4.60;;
13335;SDS011;6737;51.480;11.962;2022-10-30T15:28:50;8.88;;;3.90;;
13335;SDS011;6737;51.480;11.962;2022-10-30T15:31:21;5.28;;;3.45;;
13335;SDS011;6737;51.480;11.962;2022-10-30T15:33:48;7.38;;;4.07;;
13335;SDS011;6737;51.480;11.962;2022-10-30T15:36:19;7.95;;;4.05;;
13335;SDS011;6737;51.480;11.962;2022-10-30T15:39:05;6.03;;;3.75;;
13335;SDS011;6737;51.480;11.962;2022-10-30T15:41:57;12.50;;;3.63;;
13335;SDS011;6737;51.480;11.962;2022-10-30T15:46:53;8.23;;;3.88;;
13335;SDS011;6737;51.480;11.962;2022-10-30T15:51:55;7.78;;;3.72;;
13335;SDS011;6737;51.480;11.962;2022-10-30T15:54:21;9.93;;;3.47;;
13335;SDS011;6737;51.480;11.962;2022-10-30T15:56:49;6.55;;;3.65;;
13335;SDS011;6737;51.480;11.962;2022-10-30T15:59:18;7.60;;;3.83;;
13335;SDS011;6737;51.480;11.962;2022-10-30T16:01:47;8.95;;;4.15;;
13335;SDS011;6737;51.480;11.962;2022-10-30T16:04:20;7.38;;;3.72;;
13335;SDS011;6737;51.480;11.962;2022-10-30T16:09:23;4.95;;;3.33;;
13335;SDS011;6737;51.480;11.962;2022-10-30T16:11:51;7.75;;;3.65;;
13335;SDS011;6737;51.480;11.962;2022-10-30T16:14:22;9.98;;;4.30;;
13335;SDS011;6737;51.480;11.962;2022-10-30T16:16:53;7.70;;;3.83;;
13335;SDS011;6737;51.480;11.962;2022-10-30T16:21:50;8.00;;;3.70;;
13335;SDS011;6737;51.480;11.962;2022-10-30T16:24:17;9.40;;;3.60;;
13335;SDS011;6737;51.480;11.962;2022-10-30T16:26:46;7.55;;;3.75;;
13335;SDS011;6737;51.480;11.962;2022-10-30T16:29:30;7.18;;;3.90;;
13335;SDS011;6737;51.480;11.962;2022-10-30T16:31:57;6.25;;;3.45;;
13335;SDS011;6737;51.480;11.962;2022-10-30T16:34:25;8.38;;;3.90;;
13335;SDS011;6737;51.480;11.962;2022-10-30T16:36:59;6.53;;;3.83;;
13335;SDS011;6737;51.480;11.962;2022-10-30T16:39:27;6.43;;;3.88;;
13335;SDS011;6737;51.480;11.962;2022-10-30T16:41:56;8.30;;;3.85;;
13335;SDS011;6737;51.480;11.962;2022-10-30T16:46:54;6.30;;;3.90;;
13335;SDS011;6737;51.480;11.962;2022-10-30T16:49:40;8.60;;;3.53;;
13335;SDS011;6737;51.480;11.962;2022-10-30T16:52:12;8.00;;;3.95;;
13335;SDS011;6737;51.480;11.962;2022-10-30T16:54:43;8.38;;;4.18;;
13335;SDS011;6737;51.480;11.962;2022-10-30T16:57:32;8.05;;;3.60;;
13335;SDS011;6737;51.480;11.962;2022-10-30T17:00:00;7.72;;;4.05;;
13335;SDS011;6737;51.480;11.962;2022-10-30T17:02:31;9.73;;;3.92;;
13335;SDS011;6737;51.480;11.962;2022-10-30T17:05:10;7.22;;;3.97;;
13335;SDS011;6737;51.480;11.962;2022-10-30T17:08:00;8.70;;;4.55;;
13335;SDS011;6737;51.480;11.962;2022-10-30T17:10:33;6.97;;;4.25;;
13335;SDS011;6737;51.480;11.962;2022-10-30T17:16:09;9.77;;;5.05;;
13335;SDS011;6737;51.480;11.962;2022-10-30T17:18:43;11.48;;;5.75;;
13335;SDS011;6737;51.480;11.962;2022-10-30T17:21:12;12.00;;;6.28;;
13335;SDS011;6737;51.480;11.962;2022-10-30T17:23:44;11.05;;;5.80;;
13335;SDS011;6737;51.480;11.962;2022-10-30T17:26:12;11.02;;;5.03;;
13335;SDS011;6737;51.480;11.962;2022-10-30T17:28:38;12.98;;;6.10;;
13335;SDS011;6737;51.480;11.962;2022-10-30T17:33:43;11.45;;;7.85;;
13335;SDS011;6737;51.480;11.962;2022-10-30T17:36:09;12.38;;;7.38;;
13335;SDS011;6737;51.480;11.962;2022-10-30T17:38:36;13.65;;;7.25;;
13335;SDS011;6737;51.480;11.962;2022-10-30T17:41:02;10.35;;;6.95;;
13335;SDS011;6737;51.480;11.962;2022-10-30T17:43:33;14.13;;;7.75;;
13335;SDS011;6737;51.480;11.962;2022-10-30T17:46:11;15.23;;;7.93;;
13335;SDS011;6737;51.480;11.962;2022-10-30T17:48:40;13.77;;;6.78;;
13335;SDS011;6737;51.480;11.962;2022-10-30T17:51:08;13.13;;;5.63;;
13335;SDS011;6737;51.480;11.962;2022-10-30T17:53:37;15.73;;;7.47;;
13335;SDS011;6737;51.480;11.962;2022-10-30T17:56:09;12.43;;;7.47;;
13335;SDS011;6737;51.480;11.962;2022-10-30T17:58:51;10.57;;;6.90;;